Time;durP1;ratioP1;P1;durP2;ratioP2;P2;SDS_P1;SDS_P2;PMS_P1;PMS_P2;Temp;Humidity;BMP_temperature;BMP_pressure;BME280_temperature;BME280_humidity;BME280_pressure;Samples;Min_cycle;Max_cycle;Signal;HPM_P1;HPM_P2
2022/01/22 00:02:54;;;;;;;1.33;0.83;;;;;;;;;;10474384;28;20049;-68
2022/01/22 00:07:58;;;;;;;4.63;1.77;;;;;;;;;;10486491;28;20381;-68
2022/01/22 00:14:23;;;;;;;6.17;1.63;;;;;;;;;;10489635;28;20032;-70
2022/01/22 00:18:32;;;;;;;5.23;1.73;;;;;;;;;;10488668;28;20203;-72
2022/01/22 00:23:38;;;;;;;4.20;1.60;;;;;;;;;;10482591;28;20044;-71
2022/01/22 00:28:42;;;;;;;9.90;1.80;;;;;;;;;;10490100;28;20112;-70
2022/01/22 00:33:45;;;;;;;0.73;0.53;;;;;;;;;;10488610;28;20029;-70
2022/01/22 00:38:50;;;;;;;4.10;1.47;;;;;;;;;;10488406;28;20385;-70
2022/01/22 00:43:53;;;;;;;6.47;1.37;;;;;;;;;;10482868;28;20648;-70
2022/01/22 00:48:57;;;;;;;5.32;2.00;;;;;;;;;;10491109;28;20200;-68
2022/01/22 00:54:02;;;;;;;2.33;0.87;;;;;;;;;;10485306;28;20128;-66
2022/01/22 00:59:05;;;;;;;4.50;2.17;;;;;;;;;;10485177;28;20048;-70
2022/01/22 01:04:10;;;;;;;5.43;1.27;;;;;;;;;;10486555;28;20060;-70
2022/01/22 01:09:17;;;;;;;4.83;1.80;;;;;;;;;;10491198;28;20075;-70
2022/01/22 01:14:26;;;;;;;5.80;2.10;;;;;;;;;;10484400;28;20465;-69
2022/01/22 01:35:36;;;;;;;4.37;1.60;;;;;;;;;;10480556;28;20070;-70
2022/01/22 01:40:44;;;;;;;3.60;1.40;;;;;;;;;;10482691;28;20036;-70
2022/01/22 01:45:47;;;;;;;3.70;1.47;;;;;;;;;;10479186;28;20039;-70
2022/01/22 01:50:50;;;;;;;2.27;1.10;;;;;;;;;;10484246;28;20044;-71
2022/01/22 01:56:05;;;;;;;2.00;0.83;;;;;;;;;;10482054;28;20036;-70
2022/01/22 02:01:09;;;;;;;1.23;0.63;;;;;;;;;;10480877;28;20093;-69
2022/01/22 02:06:12;;;;;;;2.37;1.07;;;;;;;;;;10484489;28;20055;-69
2022/01/22 02:11:19;;;;;;;3.40;1.37;;;;;;;;;;10479956;28;20102;-70
2022/01/22 02:27:12;;;;;;;2.80;1.20;;;;;;;;;;10481391;28;20094;-68
2022/01/22 02:37:46;;;;;;;2.40;1.17;;;;;;;;;;10480311;28;20140;-68
2022/01/22 02:42:50;;;;;;;1.40;0.80;;;;;;;;;;10482751;28;20033;-70
2022/01/22 02:47:54;;;;;;;2.70;1.40;;;;;;;;;;10486940;28;20061;-70
2022/01/22 02:53:01;;;;;;;2.35;1.50;;;;;;;;;;10479775;28;20063;-68
2022/01/22 02:58:04;;;;;;;3.37;2.00;;;;;;;;;;10483425;28;20191;-70
2022/01/22 03:03:08;;;;;;;2.72;1.35;;;;;;;;;;10475831;28;20036;-70
2022/01/22 03:08:14;;;;;;;3.17;1.43;;;;;;;;;;10481054;28;20139;-69
2022/01/22 03:13:52;;;;;;;6.37;2.20;;;;;;;;;;10475766;28;20413;-70
2022/01/22 03:18:53;;;;;;;3.40;1.23;;;;;;;;;;10480872;28;20036;-70
2022/01/22 03:29:19;;;;;;;2.63;1.10;;;;;;;;;;10477651;28;20063;-69
2022/01/22 03:34:22;;;;;;;2.15;1.23;;;;;;;;;;10476978;28;20124;-69
2022/01/22 03:39:27;;;;;;;0.67;0.67;;;;;;;;;;10481264;28;20047;-71
2022/01/22 03:44:30;;;;;;;0.73;0.73;;;;;;;;;;10487126;28;20040;-71
2022/01/22 03:49:33;;;;;;;4.63;2.35;;;;;;;;;;10530274;22;20049;-75
2022/01/22 03:54:38;;;;;;;2.40;1.70;;;;;;;;;;10516437;28;20140;-76
2022/01/22 03:59:41;;;;;;;5.87;2.03;;;;;;;;;;10520726;28;20527;-75
2022/01/22 04:04:46;;;;;;;5.13;2.03;;;;;;;;;;10513747;28;20052;-76
2022/01/22 04:09:54;;;;;;;4.00;1.37;;;;;;;;;;10514162;28;20036;-76
2022/01/22 04:15:02;;;;;;;3.77;2.20;;;;;;;;;;10517055;28;20492;-76
2022/01/22 04:25:30;;;;;;;2.27;1.30;;;;;;;;;;10532766;27;20070;-77
2022/01/22 04:30:33;;;;;;;4.97;1.90;;;;;;;;;;10522322;28;20040;-76
2022/01/22 04:35:36;;;;;;;4.67;1.73;;;;;;;;;;10525325;28;20120;-75
2022/01/22 04:40:40;;;;;;;7.00;2.97;;;;;;;;;;10530091;27;20037;-78
2022/01/22 04:45:52;;;;;;;;;;;;;;;;;;10506742;28;20408;-78
2022/01/22 04:56:17;;;;;;;6.97;3.10;;;;;;;;;;10511578;28;20036;-77
2022/01/22 05:01:19;;;;;;;;;;;;;;;;;;10531936;28;20040;-77
2022/01/22 05:06:22;;;;;;;6.00;2.03;;;;;;;;;;10514894;28;19920;-77
2022/01/22 05:11:26;;;;;;;11.43;3.30;;;;;;;;;;10517309;28;20047;-78
2022/01/22 05:16:29;;;;;;;;;;;;;;;;;;10513012;28;20473;-78
2022/01/22 05:21:34;;;;;;;4.00;1.90;;;;;;;;;;10513928;28;20490;-77
2022/01/22 05:27:10;;;;;;;9.40;4.47;;;;;;;;;;10524206;28;20048;-78
2022/01/22 05:32:27;;;;;;;10.80;4.37;;;;;;;;;;10506511;28;20498;-77
2022/01/22 05:37:29;;;;;;;4.07;2.67;;;;;;;;;;10518760;28;20143;-78
2022/01/22 05:42:35;;;;;;;8.50;3.30;;;;;;;;;;10520142;28;20048;-76
2022/01/22 05:47:38;;;;;;;8.67;3.67;;;;;;;;;;10512617;28;20423;-77
2022/01/22 05:52:53;;;;;;;2.93;1.07;;;;;;;;;;10510449;28;20131;-78
2022/01/22 06:03:18;;;;;;;9.27;4.07;;;;;;;;;;10523028;28;20048;-76
2022/01/22 06:08:21;;;;;;;8.40;3.80;;;;;;;;;;10525486;28;20143;-77
2022/01/22 06:13:33;;;;;;;8.30;3.85;;;;;;;;;;10505509;28;20032;-77
2022/01/22 06:18:36;;;;;;;9.70;3.67;;;;;;;;;;10509795;28;20041;-75
2022/01/22 06:23:40;;;;;;;6.97;3.37;;;;;;;;;;10510743;28;20254;-76
2022/01/22 06:28:44;;;;;;;10.80;5.40;;;;;;;;;;10511926;28;20040;-78
2022/01/22 06:33:47;;;;;;;6.30;2.67;;;;;;;;;;10509735;28;20044;-78
2022/01/22 06:38:55;;;;;;;14.67;5.43;;;;;;;;;;10510606;28;20046;-79
2022/01/22 06:44:00;;;;;;;13.67;6.40;;;;;;;;;;10510013;28;20071;-80
2022/01/22 06:49:04;;;;;;;10.43;4.77;;;;;;;;;;10524348;28;20039;-79
2022/01/22 06:54:08;;;;;;;5.30;2.57;;;;;;;;;;10515429;28;20532;-77
2022/01/22 06:59:11;;;;;;;;;;;;;;;;;;10509850;28;20036;-77
2022/01/22 07:04:17;;;;;;;7.10;3.90;;;;;;;;;;10509293;28;19935;-76
2022/01/22 07:09:22;;;;;;;3.20;2.23;;;;;;;;;;10509362;28;20059;-76
2022/01/22 07:14:26;;;;;;;12.40;5.57;;;;;;;;;;10503842;28;20093;-75
2022/01/22 07:19:38;;;;;;;6.55;2.65;;;;;;;;;;10513056;28;20066;-78
2022/01/22 07:24:41;;;;;;;3.27;2.20;;;;;;;;;;10510296;28;20108;-77
2022/01/22 07:29:46;;;;;;;15.27;6.33;;;;;;;;;;10516766;28;20053;-76
2022/01/22 07:34:51;;;;;;;3.97;2.07;;;;;;;;;;10505478;28;20043;-76
2022/01/22 07:39:54;;;;;;;7.67;3.33;;;;;;;;;;10514922;28;20054;-76
2022/01/22 07:44:58;;;;;;;7.65;3.28;;;;;;;;;;10514207;28;20425;-77
2022/01/22 07:50:02;;;;;;;13.13;4.40;;;;;;;;;;10520055;28;20050;-77
2022/01/22 07:55:06;;;;;;;12.33;6.40;;;;;;;;;;10520894;28;20036;-77
2022/01/22 08:00:11;;;;;;;9.90;3.33;;;;;;;;;;10520457;28;20086;-78
2022/01/22 08:05:16;;;;;;;11.77;4.30;;;;;;;;;;10518332;28;20050;-79
2022/01/22 08:10:20;;;;;;;6.40;2.77;;;;;;;;;;10537695;28;20068;-76
2022/01/22 08:15:23;;;;;;;10.70;4.97;;;;;;;;;;10513036;28;20055;-76
2022/01/22 08:20:27;;;;;;;7.77;3.43;;;;;;;;;;10513648;28;20780;-77
2022/01/22 08:25:32;;;;;;;;;;;;;;;;;;10509501;28;20631;-77
2022/01/22 08:30:35;;;;;;;;;;;;;;;;;;10513738;28;19924;-77
2022/01/22 08:35:54;;;;;;;8.07;2.90;;;;;;;;;;10513447;28;19955;-77
2022/01/22 08:40:58;;;;;;;19.43;8.17;;;;;;;;;;10536313;28;20059;-76
2022/01/22 08:46:02;;;;;;;15.45;7.45;;;;;;;;;;10513262;28;20485;-76
2022/01/22 08:51:06;;;;;;;;;;;;;;;;;;10512526;28;20131;-77
2022/01/22 08:56:23;;;;;;;14.27;6.63;;;;;;;;;;10503627;28;19966;-76
2022/01/22 09:01:26;;;;;;;8.73;3.70;;;;;;;;;;10517146;28;20067;-78
2022/01/22 09:06:29;;;;;;;16.87;8.13;;;;;;;;;;10508321;28;20044;-75
2022/01/22 09:11:33;;;;;;;12.67;5.90;;;;;;;;;;10531203;28;20040;-74
2022/01/22 09:16:37;;;;;;;5.43;2.97;;;;;;;;;;10514962;28;20055;-78
2022/01/22 09:21:42;;;;;;;13.18;4.82;;;;;;;;;;10515323;28;20039;-78
2022/01/22 09:26:47;;;;;;;9.50;4.30;;;;;;;;;;10526325;28;20032;-77
2022/01/22 09:31:51;;;;;;;5.60;2.80;;;;;;;;;;10514792;28;20036;-76
2022/01/22 09:36:55;;;;;;;;;;;;;;;;;;10530256;28;20048;-74
2022/01/22 09:42:01;;;;;;;11.40;3.93;;;;;;;;;;10528371;28;19931;-76
2022/01/22 09:47:07;;;;;;;19.60;8.60;;;;;;;;;;10523292;28;20059;-76
2022/01/22 09:52:11;;;;;;;7.55;3.55;;;;;;;;;;10525524;28;20044;-75
2022/01/22 09:57:16;;;;;;;11.57;4.73;;;;;;;;;;10518024;28;20099;-75
2022/01/22 10:02:20;;;;;;;7.80;3.70;;;;;;;;;;10540029;28;20652;-78
2022/01/22 10:07:24;;;;;;;6.90;2.90;;;;;;;;;;10516223;28;20047;-77
2022/01/22 10:12:30;;;;;;;5.67;2.90;;;;;;;;;;10521072;28;20079;-76
2022/01/22 10:17:44;;;;;;;10.70;6.10;;;;;;;;;;10518872;28;20379;-73
2022/01/22 10:22:47;;;;;;;5.33;2.73;;;;;;;;;;10511544;28;20048;-75
2022/01/22 10:27:57;;;;;;;14.47;2.37;;;;;;;;;;10510671;28;20290;-77
2022/01/22 10:33:06;;;;;;;9.90;4.47;;;;;;;;;;10509833;28;20559;-76
2022/01/22 10:38:10;;;;;;;3.50;1.70;;;;;;;;;;10524529;28;20041;-74
2022/01/22 10:43:17;;;;;;;10.00;4.53;;;;;;;;;;10519215;28;20040;-73
2022/01/22 10:48:21;;;;;;;12.00;5.07;;;;;;;;;;10527679;28;20104;-75
2022/01/22 10:53:33;;;;;;;8.27;4.00;;;;;;;;;;10539082;28;20036;-74
2022/01/22 10:58:52;;;;;;;4.13;2.53;;;;;;;;;;10532780;28;20593;-74
2022/01/22 11:04:06;;;;;;;7.93;3.27;;;;;;;;;;10526803;28;20083;-74
2022/01/22 11:09:09;;;;;;;8.60;4.38;;;;;;;;;;10516780;28;20055;-75
2022/01/22 11:14:14;;;;;;;8.67;4.30;;;;;;;;;;10521485;28;20037;-75
2022/01/22 11:19:18;;;;;;;16.43;7.77;;;;;;;;;;10525966;28;20036;-76
2022/01/22 11:24:22;;;;;;;10.90;5.20;;;;;;;;;;10520249;28;20060;-77
2022/01/22 11:29:28;;;;;;;5.47;1.75;;;;;;;;;;10516979;28;20135;-75
2022/01/22 11:34:32;;;;;;;5.07;2.53;;;;;;;;;;10519289;28;20036;-74
2022/01/22 11:39:36;;;;;;;9.47;4.27;;;;;;;;;;10515961;28;20039;-74
2022/01/22 11:44:48;;;;;;;9.60;5.05;;;;;;;;;;10513859;28;20085;-76
2022/01/22 11:50:06;;;;;;;10.37;4.43;;;;;;;;;;10511685;28;20051;-76
2022/01/22 11:55:11;;;;;;;7.30;3.43;;;;;;;;;;10519770;28;20048;-74
2022/01/22 12:00:17;;;;;;;6.80;3.47;;;;;;;;;;10511969;28;20420;-73
2022/01/22 12:05:20;;;;;;;6.37;2.93;;;;;;;;;;10511482;28;20063;-76
2022/01/22 12:10:39;;;;;;;5.77;2.90;;;;;;;;;;10521659;28;20040;-75
2022/01/22 12:15:51;;;;;;;11.40;3.50;;;;;;;;;;10541987;28;20354;-75
2022/01/22 12:26:15;;;;;;;9.50;4.40;;;;;;;;;;10547704;28;20074;-75
2022/01/22 12:31:20;;;;;;;4.70;2.30;;;;;;;;;;10548285;28;20074;-76
2022/01/22 12:36:36;;;;;;;7.97;3.27;;;;;;;;;;10558154;28;20126;-76
2022/01/22 12:41:48;;;;;;;8.93;3.23;;;;;;;;;;10556392;28;20040;-76
2022/01/22 12:46:53;;;;;;;11.67;3.90;;;;;;;;;;10555373;28;20036;-75
2022/01/22 12:51:56;;;;;;;13.37;4.77;;;;;;;;;;10536778;28;20032;-75
2022/01/22 12:57:03;;;;;;;10.77;4.05;;;;;;;;;;10530481;28;20036;-77
2022/01/22 13:02:08;;;;;;;10.17;4.70;;;;;;;;;;10526051;28;20067;-75
2022/01/22 13:07:12;;;;;;;5.13;2.53;;;;;;;;;;10529728;28;20042;-74
2022/01/22 13:12:15;;;;;;;4.13;1.92;;;;;;;;;;10538259;28;20029;-76
2022/01/22 13:17:20;;;;;;;8.93;3.90;;;;;;;;;;10517033;28;20570;-76
2022/01/22 13:22:30;;;;;;;5.40;2.30;;;;;;;;;;10515790;28;20048;-76
2022/01/22 13:27:33;;;;;;;9.67;4.87;;;;;;;;;;10518176;28;20347;-76
2022/01/22 13:32:53;;;;;;;5.90;2.70;;;;;;;;;;10529961;28;20035;-77
2022/01/22 13:48:55;;;;;;;11.83;5.93;;;;;;;;;;10467617;28;20047;-78
2022/01/22 13:54:01;;;;;;;5.77;3.20;;;;;;;;;;10527692;28;20032;-77
2022/01/22 13:59:19;;;;;;;10.47;5.47;;;;;;;;;;10510920;28;20768;-78
2022/01/22 14:04:24;;;;;;;10.93;4.27;;;;;;;;;;10523146;28;20457;-77
2022/01/22 14:09:27;;;;;;;8.40;3.70;;;;;;;;;;10520575;28;20048;-77
2022/01/22 14:14:32;;;;;;;11.67;3.30;;;;;;;;;;10521555;28;20495;-77
2022/01/22 14:19:37;;;;;;;6.10;2.20;;;;;;;;;;10529194;28;20032;-76
2022/01/22 14:24:40;;;;;;;9.67;4.23;;;;;;;;;;10539468;28;20044;-77
2022/01/22 14:29:44;;;;;;;7.73;3.17;;;;;;;;;;10505211;28;20559;-75
2022/01/22 14:34:49;;;;;;;6.85;3.33;;;;;;;;;;10512610;28;20086;-76
2022/01/22 14:45:14;;;;;;;9.43;4.13;;;;;;;;;;10509825;28;20079;-73
2022/01/22 14:50:19;;;;;;;8.07;3.40;;;;;;;;;;10510535;28;20487;-73
2022/01/22 14:55:22;;;;;;;8.13;3.03;;;;;;;;;;10510577;28;20036;-75
2022/01/22 15:00:25;;;;;;;6.60;2.95;;;;;;;;;;10506888;28;20040;-75
2022/01/22 15:05:30;;;;;;;13.63;4.43;;;;;;;;;;10505338;28;20044;-76
2022/01/22 15:10:33;;;;;;;6.33;3.37;;;;;;;;;;10506427;28;20044;-73
2022/01/22 15:15:42;;;;;;;9.73;3.00;;;;;;;;;;10514387;28;20050;-76
2022/01/22 15:20:49;;;;;;;6.17;3.07;;;;;;;;;;10511782;28;20032;-77
2022/01/22 15:25:52;;;;;;;10.97;3.60;;;;;;;;;;10509416;28;20423;-75
2022/01/22 15:30:55;;;;;;;5.00;2.83;;;;;;;;;;10505530;28;20153;-77
2022/01/22 15:36:00;;;;;;;9.67;4.20;;;;;;;;;;10509150;28;20114;-77
2022/01/22 15:41:02;;;;;;;;;;;;;;;;;;10518236;28;20109;-74
2022/01/22 15:46:05;;;;;;;6.20;2.83;;;;;;;;;;10518746;28;20054;-79
2022/01/22 15:51:10;;;;;;;9.33;4.10;;;;;;;;;;10512460;28;20471;-75
2022/01/22 15:56:13;;;;;;;7.83;3.67;;;;;;;;;;10513150;28;20038;-75
2022/01/22 16:01:17;;;;;;;5.77;2.30;;;;;;;;;;10511554;28;20395;-75
2022/01/22 16:06:22;;;;;;;2.63;1.63;;;;;;;;;;10532317;28;20038;-77
2022/01/22 16:11:25;;;;;;;7.73;2.83;;;;;;;;;;10509365;28;20040;-75
2022/01/22 16:16:49;;;;;;;5.00;2.37;;;;;;;;;;10512455;28;20061;-75
2022/01/22 16:21:55;;;;;;;1.65;1.08;;;;;;;;;;10507802;28;20044;-77
2022/01/22 16:26:58;;;;;;;6.57;3.53;;;;;;;;;;10511780;28;20030;-75
2022/01/22 16:32:01;;;;;;;6.53;2.93;;;;;;;;;;10509098;28;20036;-74
2022/01/22 16:37:06;;;;;;;7.57;2.90;;;;;;;;;;10517904;28;20036;-75
2022/01/22 16:42:14;;;;;;;9.30;3.80;;;;;;;;;;10507559;28;20055;-75
2022/01/22 16:53:49;;;;;;;3.60;1.90;;;;;;;;;;10461161;28;20449;-75
2022/01/22 16:58:46;;;;;;;15.13;5.40;;;;;;;;;;10507762;28;20037;-74
2022/01/22 17:03:51;;;;;;;10.20;4.23;;;;;;;;;;10510418;28;20081;-75
2022/01/22 17:09:07;;;;;;;6.37;2.77;;;;;;;;;;10507760;28;20039;-75
2022/01/22 17:14:13;;;;;;;10.93;4.17;;;;;;;;;;10507598;28;20044;-77
2022/01/22 17:19:16;;;;;;;7.90;3.17;;;;;;;;;;10513093;28;20036;-75
2022/01/22 17:24:20;;;;;;;15.17;4.97;;;;;;;;;;10525959;27;20384;-74
2022/01/22 17:29:23;;;;;;;;;;;;;;;;;;10513478;28;20070;-75
2022/01/22 17:34:29;;;;;;;7.30;3.60;;;;;;;;;;10504565;28;20383;-75
2022/01/22 17:39:37;;;;;;;5.80;2.60;;;;;;;;;;10510619;28;20036;-73
2022/01/22 17:44:46;;;;;;;10.93;5.03;;;;;;;;;;10510955;28;20102;-75
2022/01/22 17:49:50;;;;;;;13.47;4.23;;;;;;;;;;10531220;28;20064;-75
2022/01/22 17:54:55;;;;;;;16.13;4.22;;;;;;;;;;10503789;28;20113;-74
2022/01/22 17:59:57;;;;;;;7.40;3.47;;;;;;;;;;10509929;28;20035;-75
2022/01/22 18:05:01;;;;;;;9.93;5.17;;;;;;;;;;10515606;28;20060;-75
2022/01/22 18:10:06;;;;;;;20.37;7.97;;;;;;;;;;10517155;28;20622;-75
2022/01/22 18:15:09;;;;;;;5.30;3.07;;;;;;;;;;10507324;28;20040;-75
2022/01/22 18:20:12;;;;;;;10.17;4.03;;;;;;;;;;10509946;28;20100;-75
2022/01/22 18:25:19;;;;;;;7.23;2.43;;;;;;;;;;10507644;28;20041;-74
2022/01/22 18:30:22;;;;;;;6.10;3.33;;;;;;;;;;10509509;28;20044;-76
2022/01/22 18:35:25;;;;;;;7.83;3.83;;;;;;;;;;10511251;28;20081;-76
2022/01/22 18:40:30;;;;;;;10.30;3.97;;;;;;;;;;10500098;28;20028;-76
2022/01/22 18:45:33;;;;;;;7.93;3.73;;;;;;;;;;10504825;28;20404;-75
2022/01/22 18:50:37;;;;;;;7.03;3.47;;;;;;;;;;10515463;28;20422;-75
2022/01/22 18:55:41;;;;;;;8.30;4.30;;;;;;;;;;10524766;28;20040;-75
2022/01/22 19:00:46;;;;;;;;;;;;;;;;;;10505186;28;20298;-74
2022/01/22 19:05:49;;;;;;;18.58;7.65;;;;;;;;;;10509927;28;19927;-74
2022/01/22 19:10:53;;;;;;;10.20;4.17;;;;;;;;;;10511842;28;20324;-74
2022/01/22 19:15:58;;;;;;;5.23;2.33;;;;;;;;;;10513158;28;20085;-74
2022/01/22 19:21:05;;;;;;;13.15;5.50;;;;;;;;;;10524634;28;20039;-74
2022/01/22 19:26:22;;;;;;;14.33;5.50;;;;;;;;;;10529473;28;20036;-74
2022/01/22 19:31:25;;;;;;;6.90;3.70;;;;;;;;;;10560862;28;20024;-74
2022/01/22 19:36:29;;;;;;;12.13;4.53;;;;;;;;;;10538905;28;20040;-76
2022/01/22 19:41:35;;;;;;;9.90;4.40;;;;;;;;;;10536392;28;20040;-76
2022/01/22 19:46:37;;;;;;;10.63;4.80;;;;;;;;;;10526674;28;20063;-77
2022/01/22 19:51:41;;;;;;;10.30;4.07;;;;;;;;;;10525508;28;20036;-73
2022/01/22 19:56:45;;;;;;;13.17;4.87;;;;;;;;;;10525461;28;20043;-77
2022/01/22 20:01:48;;;;;;;9.83;4.67;;;;;;;;;;10522512;28;20035;-77
2022/01/22 20:06:52;;;;;;;18.20;6.95;;;;;;;;;;10528798;28;20086;-75
2022/01/22 20:11:57;;;;;;;12.97;6.17;;;;;;;;;;10524105;28;20062;-76
2022/01/22 20:17:00;;;;;;;14.77;5.27;;;;;;;;;;10514785;28;20051;-79
2022/01/22 20:22:05;;;;;;;16.95;5.38;;;;;;;;;;10516401;28;20032;-75
2022/01/22 20:27:27;;;;;;;7.13;3.27;;;;;;;;;;10522095;28;20085;-76
2022/01/22 20:32:30;;;;;;;9.93;4.77;;;;;;;;;;10521635;28;20153;-75
2022/01/22 20:37:34;;;;;;;15.73;6.70;;;;;;;;;;10580732;22;20068;-69
2022/01/22 20:42:39;;;;;;;10.48;4.55;;;;;;;;;;10513621;28;20032;-70
2022/01/22 20:48:03;;;;;;;12.02;5.68;;;;;;;;;;10481461;28;20037;-70
2022/01/22 20:53:07;;;;;;;11.37;5.23;;;;;;;;;;10469800;28;20471;-71
2022/01/22 20:58:19;;;;;;;11.07;4.13;;;;;;;;;;10473039;28;20037;-69
2022/01/22 21:03:26;;;;;;;15.40;5.33;;;;;;;;;;10472926;28;20040;-70
2022/01/22 21:08:33;;;;;;;11.97;6.13;;;;;;;;;;10474777;28;20028;-71
2022/01/22 21:13:38;;;;;;;19.80;6.80;;;;;;;;;;10472343;28;20108;-69
2022/01/22 21:18:41;;;;;;;11.10;5.40;;;;;;;;;;10486069;28;20025;-69
2022/01/22 21:23:45;;;;;;;6.43;2.90;;;;;;;;;;10499755;28;20087;-69
2022/01/22 21:28:50;;;;;;;7.90;3.15;;;;;;;;;;10476735;28;20051;-70
2022/01/22 21:33:55;;;;;;;10.80;4.00;;;;;;;;;;10476579;28;20519;-68
2022/01/22 21:44:20;;;;;;;7.83;3.37;;;;;;;;;;10470497;28;20416;-68
2022/01/22 21:49:24;;;;;;;17.33;5.57;;;;;;;;;;10476053;28;20112;-70
2022/01/22 21:54:27;;;;;;;11.07;3.10;;;;;;;;;;10476392;28;20037;-69
2022/01/22 21:59:33;;;;;;;14.60;6.00;;;;;;;;;;10468930;28;20164;-69
2022/01/22 22:04:35;;;;;;;11.63;3.70;;;;;;;;;;10471596;28;20047;-67
2022/01/22 22:09:39;;;;;;;15.40;5.93;;;;;;;;;;10470377;28;20040;-68
2022/01/22 22:14:44;;;;;;;15.70;7.67;;;;;;;;;;10468992;28;21006;-68
2022/01/22 22:19:47;;;;;;;15.53;5.77;;;;;;;;;;10464065;28;20032;-67
2022/01/22 22:24:50;;;;;;;22.63;7.57;;;;;;;;;;10465658;28;20445;-69
2022/01/22 22:29:55;;;;;;;25.47;8.73;;;;;;;;;;10467755;28;20033;-68
2022/01/22 22:34:57;;;;;;;;;;;;;;;;;;10468565;28;20478;-68
2022/01/22 22:40:01;;;;;;;13.27;4.70;;;;;;;;;;10471995;28;20542;-68
2022/01/22 22:45:06;;;;;;;9.57;3.30;;;;;;;;;;10473163;28;20056;-69
2022/01/22 22:50:09;;;;;;;12.23;5.17;;;;;;;;;;10468669;28;20102;-69
2022/01/22 22:55:12;;;;;;;7.90;3.07;;;;;;;;;;10473358;28;20431;-69
2022/01/22 23:00:25;;;;;;;14.50;4.33;;;;;;;;;;10468797;28;20040;-69
2022/01/22 23:05:29;;;;;;;16.15;6.70;;;;;;;;;;10468139;28;20042;-69
2022/01/22 23:10:32;;;;;;;16.07;6.40;;;;;;;;;;10463026;28;20139;-69
2022/01/22 23:15:37;;;;;;;15.23;5.00;;;;;;;;;;10467774;28;20040;-68
2022/01/22 23:26:07;;;;;;;19.57;6.73;;;;;;;;;;10446599;28;20357;-70
2022/01/22 23:31:18;;;;;;;11.73;4.83;;;;;;;;;;10464676;28;20071;-70
2022/01/22 23:47:51;;;;;;;4.37;2.43;;;;;;;;;;10426727;28;20114;-67
2022/01/22 23:58:13;;;;;;;5.70;3.83;;;;;;;;;;10469323;28;20033;-69
